Terminal Aerodrome Forecast
Issued by NWS

Home | Current Version | Previous Version | Text Only | Print | Product List | Glossary On
Versions: 1 2 3 4 5 6 7 8 9 10 11 12 13 14
486
FTUS43 KIND 212325
TAFHUF
TAF
KHUF 212325Z 2200/2224 16007KT P6SM FEW050 SCT080
     FM221400 16012G20KT P6SM VCSH BKN070
     FM221800 17015G24KT P6SM BKN050
     FM222100 17011G20KT 3SM -SHRA OVC030=

USA.gov is the U.S. government's official web portal to all federal, state and local government web resources and services.